Time;durP1;ratioP1;P1;durP2;ratioP2;P2;SDS_P1;SDS_P2;PMS_P1;PMS_P2;Temp;Humidity;BMP_temperature;BMP_pressure;BME280_temperature;BME280_humidity;BME280_pressure;Samples;Min_cycle;Max_cycle;Signal;HPM_P1;HPM_P2
2022/11/26 00:01:37;;;;;;;85.40;23.30;;;;;;;;;;5039362;28;20535;-80
2022/11/26 00:04:05;;;;;;;80.80;21.15;;;;;;;;;;5039534;28;20477;-80
2022/11/26 00:06:35;;;;;;;82.10;22.90;;;;;;;;;;5039829;28;20308;-80
2022/11/26 00:09:02;;;;;;;84.75;23.30;;;;;;;;;;5038765;28;20503;-80
2022/11/26 00:11:30;;;;;;;88.53;24.70;;;;;;;;;;5040113;28;20299;-80
2022/11/26 00:13:57;;;;;;;87.00;22.17;;;;;;;;;;5039444;28;20499;-79
2022/11/26 00:16:24;;;;;;;86.97;22.45;;;;;;;;;;5039360;28;20263;-80
2022/11/26 00:18:51;;;;;;;85.95;20.23;;;;;;;;;;5038827;28;20260;-80
2022/11/26 00:21:22;;;;;;;82.70;21.10;;;;;;;;;;5039212;28;20304;-79
2022/11/26 00:23:50;;;;;;;81.60;21.67;;;;;;;;;;5039584;28;20529;-80
2022/11/26 00:26:18;;;;;;;83.63;22.40;;;;;;;;;;5039527;28;20512;-80
2022/11/26 00:28:50;;;;;;;81.00;21.35;;;;;;;;;;5043089;28;20984;-80
2022/11/26 00:31:17;;;;;;;84.78;19.73;;;;;;;;;;5043613;28;20232;-80
2022/11/26 00:33:44;;;;;;;87.23;21.27;;;;;;;;;;5043319;28;20289;-80
2022/11/26 00:36:16;;;;;;;79.15;18.92;;;;;;;;;;5043222;28;20518;-79
2022/11/26 00:38:43;;;;;;;79.80;22.97;;;;;;;;;;5043300;28;20261;-80
2022/11/26 00:41:15;;;;;;;83.28;20.50;;;;;;;;;;5043012;28;20455;-80
2022/11/26 00:43:42;;;;;;;81.72;21.92;;;;;;;;;;5043537;28;20670;-80
2022/11/26 00:46:11;;;;;;;81.88;20.58;;;;;;;;;;5043551;28;20233;-80
2022/11/26 00:48:38;;;;;;;79.88;20.13;;;;;;;;;;5042695;28;20300;-80
2022/11/26 00:51:06;;;;;;;78.97;20.27;;;;;;;;;;5043910;28;20651;-79
2022/11/26 00:53:33;;;;;;;81.05;21.10;;;;;;;;;;5043960;28;20301;-80
2022/11/26 00:56:00;;;;;;;83.00;20.67;;;;;;;;;;5043849;28;20645;-80
2022/11/26 00:58:30;;;;;;;81.80;19.20;;;;;;;;;;5043738;28;20892;-81
2022/11/26 01:01:00;;;;;;;79.07;19.70;;;;;;;;;;5043086;28;20486;-80
2022/11/26 01:03:28;;;;;;;86.30;20.70;;;;;;;;;;5043854;28;20491;-80
2022/11/26 01:05:57;;;;;;;78.78;18.40;;;;;;;;;;5044099;28;20210;-79
2022/11/26 01:08:27;;;;;;;80.40;18.55;;;;;;;;;;5042493;28;20226;-79
2022/11/26 01:10:55;;;;;;;78.53;17.85;;;;;;;;;;5042325;28;20237;-79
2022/11/26 01:13:22;;;;;;;80.57;19.23;;;;;;;;;;5042814;28;20241;-79
2022/11/26 01:15:50;;;;;;;84.47;21.40;;;;;;;;;;5042986;28;20484;-80
2022/11/26 01:18:19;;;;;;;83.77;21.60;;;;;;;;;;5040102;28;20575;-78
2022/11/26 01:20:46;;;;;;;75.85;18.95;;;;;;;;;;5042060;28;20547;-79
2022/11/26 01:23:15;;;;;;;83.17;22.63;;;;;;;;;;5042964;28;20632;-79
2022/11/26 01:25:43;;;;;;;85.60;18.60;;;;;;;;;;5043003;28;20475;-79
2022/11/26 01:28:11;;;;;;;81.60;20.27;;;;;;;;;;5042552;28;20467;-79
2022/11/26 01:30:38;;;;;;;76.23;18.00;;;;;;;;;;5042576;28;20270;-79
2022/11/26 01:33:07;;;;;;;77.50;18.93;;;;;;;;;;5042241;28;20476;-80
2022/11/26 01:35:34;;;;;;;83.40;19.57;;;;;;;;;;5043119;28;20805;-79
2022/11/26 01:38:01;;;;;;;78.85;18.25;;;;;;;;;;5042090;28;20583;-80
2022/11/26 01:40:52;;;;;;;81.85;17.85;;;;;;;;;;5041568;28;20234;-79
2022/11/26 01:43:23;;;;;;;77.67;17.77;;;;;;;;;;5031468;28;20297;-79
2022/11/26 01:45:50;;;;;;;80.50;19.40;;;;;;;;;;5041458;28;20532;-80
2022/11/26 01:48:25;;;;;;;76.90;18.60;;;;;;;;;;5041174;28;20241;-80
2022/11/26 01:50:55;;;;;;;79.63;18.95;;;;;;;;;;5040729;28;20214;-80
2022/11/26 01:53:27;;;;;;;77.77;18.07;;;;;;;;;;5041982;28;20288;-80
2022/11/26 01:55:56;;;;;;;80.43;17.85;;;;;;;;;;5041501;28;20456;-79
2022/11/26 01:58:26;;;;;;;90.97;19.90;;;;;;;;;;5041665;28;20257;-79
2022/11/26 02:00:53;;;;;;;76.37;18.10;;;;;;;;;;5046009;28;20453;-81
2022/11/26 02:03:20;;;;;;;83.17;20.83;;;;;;;;;;5048173;28;20489;-80
2022/11/26 02:05:52;;;;;;;75.77;19.30;;;;;;;;;;5048811;28;20482;-81
2022/11/26 02:08:19;;;;;;;81.00;18.30;;;;;;;;;;5047348;28;20533;-82
2022/11/26 02:10:47;;;;;;;80.57;19.40;;;;;;;;;;5044981;28;20454;-83
2022/11/26 02:13:14;;;;;;;81.80;18.70;;;;;;;;;;5027902;28;20457;-81
2022/11/26 02:15:43;;;;;;;80.20;19.05;;;;;;;;;;5027761;28;20457;-82
2022/11/26 02:18:10;;;;;;;81.60;18.27;;;;;;;;;;5027905;28;20262;-81
2022/11/26 02:20:49;;;;;;;76.10;18.13;;;;;;;;;;5027818;28;20454;-81
2022/11/26 02:23:35;;;;;;;81.47;17.60;;;;;;;;;;5028686;28;20210;-81
2022/11/26 02:26:15;;;;;;;73.97;16.13;;;;;;;;;;5028444;28;20465;-81
2022/11/26 02:28:59;;;;;;;78.72;17.63;;;;;;;;;;5026716;28;20562;-81
2022/11/26 02:31:30;;;;;;;79.85;17.60;;;;;;;;;;5028504;28;20211;-82
2022/11/26 02:33:59;;;;;;;77.05;17.15;;;;;;;;;;5028705;28;20237;-81
2022/11/26 02:36:29;;;;;;;79.10;18.73;;;;;;;;;;5028085;28;20217;-81
2022/11/26 02:38:57;;;;;;;77.93;17.03;;;;;;;;;;5028122;28;20475;-81
2022/11/26 02:41:32;;;;;;;75.03;16.77;;;;;;;;;;5024032;28;20817;-81
2022/11/26 02:43:59;;;;;;;80.00;18.20;;;;;;;;;;5027662;28;20249;-80
2022/11/26 02:46:28;;;;;;;76.67;18.90;;;;;;;;;;5027925;28;20446;-81
2022/11/26 02:48:55;;;;;;;78.43;17.60;;;;;;;;;;5027109;28;20480;-80
2022/11/26 02:51:24;;;;;;;78.03;16.80;;;;;;;;;;5028357;28;20253;-80
2022/11/26 02:53:52;;;;;;;73.85;16.30;;;;;;;;;;5029324;28;20457;-81
2022/11/26 02:56:21;;;;;;;80.45;17.80;;;;;;;;;;5029374;28;20680;-81
2022/11/26 02:58:48;;;;;;;76.40;16.92;;;;;;;;;;5028169;28;20242;-81
2022/11/26 03:01:17;;;;;;;77.27;16.77;;;;;;;;;;5029597;28;20214;-81
2022/11/26 03:03:48;;;;;;;78.27;17.87;;;;;;;;;;5029308;28;20481;-81
2022/11/26 03:06:15;;;;;;;71.30;16.42;;;;;;;;;;5029528;28;20509;-80
2022/11/26 03:08:44;;;;;;;74.27;15.47;;;;;;;;;;5028237;28;20233;-80
2022/11/26 03:11:11;;;;;;;73.90;15.80;;;;;;;;;;5029053;28;20452;-81
2022/11/26 03:13:38;;;;;;;79.13;16.73;;;;;;;;;;5029218;28;20526;-80
2022/11/26 03:16:05;;;;;;;72.97;16.77;;;;;;;;;;5028461;28;20829;-81
2022/11/26 03:18:32;;;;;;;79.07;18.47;;;;;;;;;;5028235;28;20524;-81
2022/11/26 03:21:01;;;;;;;74.30;17.53;;;;;;;;;;5028974;28;20482;-80
2022/11/26 03:23:28;;;;;;;82.83;16.40;;;;;;;;;;5028179;28;20478;-80
2022/11/26 03:25:55;;;;;;;71.90;14.40;;;;;;;;;;5028866;28;20457;-80
2022/11/26 03:28:22;;;;;;;73.60;15.53;;;;;;;;;;5028478;28;20489;-81
2022/11/26 03:30:50;;;;;;;76.10;16.70;;;;;;;;;;5028874;28;20454;-80
2022/11/26 03:33:17;;;;;;;80.07;15.23;;;;;;;;;;5028758;28;20825;-80
2022/11/26 03:35:44;;;;;;;74.75;16.10;;;;;;;;;;5029484;28;20446;-80
2022/11/26 03:38:13;;;;;;;70.80;14.65;;;;;;;;;;5028781;28;20293;-80
2022/11/26 03:40:40;;;;;;;72.73;14.33;;;;;;;;;;5028728;28;20211;-80
2022/11/26 03:43:07;;;;;;;70.37;14.43;;;;;;;;;;5029751;28;20850;-80
2022/11/26 03:45:35;;;;;;;70.63;14.05;;;;;;;;;;5029504;28;20449;-80
2022/11/26 03:48:02;;;;;;;72.97;14.50;;;;;;;;;;5029895;28;20206;-80
2022/11/26 03:50:29;;;;;;;74.30;15.70;;;;;;;;;;5028430;28;20454;-80
2022/11/26 03:52:56;;;;;;;71.77;15.17;;;;;;;;;;5028984;28;20465;-80
2022/11/26 03:55:25;;;;;;;70.68;15.52;;;;;;;;;;5029731;28;20481;-80
2022/11/26 03:57:52;;;;;;;73.10;15.83;;;;;;;;;;5029196;28;20228;-80
2022/11/26 04:00:20;;;;;;;73.43;13.60;;;;;;;;;;5028285;28;20500;-80
2022/11/26 04:02:47;;;;;;;71.03;14.77;;;;;;;;;;5028880;28;20234;-80
2022/11/26 04:05:14;;;;;;;71.00;13.83;;;;;;;;;;5029285;28;20445;-80
2022/11/26 04:07:41;;;;;;;74.88;16.05;;;;;;;;;;5029600;28;20456;-80
2022/11/26 04:10:09;;;;;;;77.30;14.40;;;;;;;;;;5028706;28;20230;-80
2022/11/26 04:12:38;;;;;;;76.75;15.18;;;;;;;;;;5029869;28;20261;-80
2022/11/26 04:15:05;;;;;;;71.05;14.48;;;;;;;;;;5030203;28;20238;-80
2022/11/26 04:17:32;;;;;;;71.93;13.85;;;;;;;;;;5030189;28;20268;-80
2022/11/26 04:19:59;;;;;;;72.43;15.60;;;;;;;;;;5030366;28;20250;-80
2022/11/26 04:22:26;;;;;;;70.37;14.60;;;;;;;;;;5025702;28;20488;-80
2022/11/26 04:24:54;;;;;;;70.80;14.48;;;;;;;;;;5025781;28;20501;-80
2022/11/26 04:27:21;;;;;;;69.93;14.10;;;;;;;;;;5024488;28;20200;-80
2022/11/26 04:29:49;;;;;;;74.33;14.03;;;;;;;;;;5024845;28;20238;-80
2022/11/26 04:32:16;;;;;;;67.77;12.80;;;;;;;;;;5025798;28;20461;-80
2022/11/26 04:34:43;;;;;;;71.72;14.70;;;;;;;;;;5025530;28;20502;-80
2022/11/26 04:37:11;;;;;;;71.28;13.23;;;;;;;;;;5025241;28;20301;-80
2022/11/26 04:39:38;;;;;;;72.63;13.30;;;;;;;;;;5024150;28;20237;-80
2022/11/26 04:42:05;;;;;;;71.90;13.27;;;;;;;;;;5025415;28;20473;-80
2022/11/26 04:44:32;;;;;;;79.70;14.80;;;;;;;;;;5024606;28;20229;-80
2022/11/26 04:47:01;;;;;;;69.68;14.52;;;;;;;;;;5024828;28;20213;-80
2022/11/26 04:49:28;;;;;;;75.35;14.30;;;;;;;;;;5023706;28;20249;-80
2022/11/26 04:51:55;;;;;;;74.15;14.10;;;;;;;;;;5024516;28;20216;-80
2022/11/26 04:54:22;;;;;;;69.38;13.93;;;;;;;;;;5024208;28;20278;-80
2022/11/26 04:56:49;;;;;;;69.63;14.17;;;;;;;;;;5024792;28;20271;-80
2022/11/26 04:59:17;;;;;;;69.90;14.50;;;;;;;;;;5023509;28;20496;-80
2022/11/26 05:01:44;;;;;;;72.97;14.03;;;;;;;;;;5023568;28;20493;-80
2022/11/26 05:04:13;;;;;;;70.18;14.05;;;;;;;;;;5024266;28;20512;-80
2022/11/26 05:06:40;;;;;;;74.22;15.75;;;;;;;;;;5024265;28;20238;-80
2022/11/26 05:09:07;;;;;;;72.43;14.07;;;;;;;;;;5023678;28;20228;-80
2022/11/26 05:11:34;;;;;;;75.88;14.73;;;;;;;;;;5024683;28;20214;-80
2022/11/26 05:14:01;;;;;;;71.03;14.02;;;;;;;;;;5026387;28;20249;-80
2022/11/26 05:16:28;;;;;;;70.43;14.85;;;;;;;;;;5028305;28;20213;-80
2022/11/26 05:18:55;;;;;;;71.00;13.23;;;;;;;;;;5026949;28;20297;-80
2022/11/26 05:21:24;;;;;;;72.57;14.13;;;;;;;;;;5027221;28;20209;-80
2022/11/26 05:23:51;;;;;;;68.63;13.13;;;;;;;;;;5027522;28;20246;-80
2022/11/26 05:26:18;;;;;;;70.40;13.27;;;;;;;;;;5027388;28;20218;-80
2022/11/26 05:28:46;;;;;;;68.75;13.20;;;;;;;;;;5026363;28;20257;-80
2022/11/26 05:31:13;;;;;;;67.57;12.23;;;;;;;;;;5027567;28;20222;-80
2022/11/26 05:33:40;;;;;;;73.78;13.60;;;;;;;;;;5027551;28;20228;-80
2022/11/26 05:36:07;;;;;;;71.07;12.98;;;;;;;;;;5025773;28;20221;-80
2022/11/26 05:38:36;;;;;;;68.82;13.40;;;;;;;;;;5027018;28;20269;-80
2022/11/26 05:41:03;;;;;;;74.40;13.85;;;;;;;;;;5027311;28;20221;-79
2022/11/26 05:43:30;;;;;;;70.00;12.35;;;;;;;;;;5027756;28;20270;-80
2022/11/26 05:45:57;;;;;;;71.97;12.23;;;;;;;;;;5027279;28;20217;-80
2022/11/26 05:48:24;;;;;;;72.55;13.30;;;;;;;;;;5027793;28;20225;-80
2022/11/26 05:50:57;;;;;;;69.18;12.95;;;;;;;;;;5027073;28;20249;-80
2022/11/26 05:53:24;;;;;;;70.28;14.20;;;;;;;;;;5027350;28;20221;-79
2022/11/26 05:55:53;;;;;;;69.75;13.07;;;;;;;;;;5028152;28;20237;-79
2022/11/26 05:58:20;;;;;;;68.53;12.80;;;;;;;;;;5027719;28;20269;-79
2022/11/26 06:00:47;;;;;;;69.45;13.43;;;;;;;;;;5027680;28;20214;-79
2022/11/26 06:03:14;;;;;;;66.63;11.50;;;;;;;;;;5027772;28;20215;-79
2022/11/26 06:05:41;;;;;;;72.60;13.10;;;;;;;;;;5027641;28;20217;-79
2022/11/26 06:08:08;;;;;;;69.47;12.65;;;;;;;;;;5028244;28;20212;-79
2022/11/26 06:10:36;;;;;;;71.28;12.90;;;;;;;;;;5026320;28;20214;-79
2022/11/26 06:13:05;;;;;;;72.05;13.40;;;;;;;;;;5025388;28;20253;-79
2022/11/26 06:15:32;;;;;;;71.13;12.52;;;;;;;;;;5024661;28;20788;-79
2022/11/26 06:17:59;;;;;;;68.47;12.25;;;;;;;;;;5025441;28;20254;-80
2022/11/26 06:20:26;;;;;;;73.03;13.15;;;;;;;;;;5026050;28;20237;-79
2022/11/26 06:22:53;;;;;;;73.15;16.10;;;;;;;;;;5025562;28;20234;-79
2022/11/26 06:25:21;;;;;;;76.85;14.93;;;;;;;;;;5024874;28;20216;-79
2022/11/26 06:27:48;;;;;;;69.10;12.02;;;;;;;;;;5026422;28;20207;-79
2022/11/26 06:30:16;;;;;;;68.03;12.10;;;;;;;;;;5026310;28;20237;-79
2022/11/26 06:32:44;;;;;;;69.38;13.05;;;;;;;;;;5027228;28;20240;-79
2022/11/26 06:35:11;;;;;;;69.57;11.48;;;;;;;;;;5027148;28;20257;-79
2022/11/26 06:37:38;;;;;;;70.15;12.25;;;;;;;;;;5027917;28;20206;-79
2022/11/26 06:40:06;;;;;;;66.63;11.20;;;;;;;;;;5027423;28;20233;-79
2022/11/26 06:42:33;;;;;;;67.97;11.57;;;;;;;;;;5027580;28;20710;-80
2022/11/26 06:45:00;;;;;;;67.10;10.98;;;;;;;;;;5028039;28;20251;-79
2022/11/26 06:47:29;;;;;;;85.90;23.60;;;;;;;;;;5027299;28;20209;-79
2022/11/26 06:49:56;;;;;;;77.90;17.35;;;;;;;;;;5027066;28;20748;-79
2022/11/26 06:52:23;;;;;;;71.40;13.10;;;;;;;;;;5026786;28;20218;-79
2022/11/26 06:54:50;;;;;;;71.75;12.73;;;;;;;;;;5027485;28;20236;-80
2022/11/26 06:57:17;;;;;;;68.20;12.23;;;;;;;;;;5028236;28;20208;-80
2022/11/26 06:59:44;;;;;;;76.30;13.00;;;;;;;;;;5027264;28;20261;-80
2022/11/26 07:02:11;;;;;;;69.25;11.85;;;;;;;;;;5027650;28;20221;-79
2022/11/26 07:04:40;;;;;;;70.40;13.80;;;;;;;;;;5027515;28;20236;-79
2022/11/26 07:07:07;;;;;;;69.15;13.65;;;;;;;;;;5027031;28;20210;-79
2022/11/26 07:09:34;;;;;;;71.57;12.13;;;;;;;;;;5026758;28;20419;-79
2022/11/26 07:12:01;;;;;;;71.47;12.65;;;;;;;;;;5027672;28;20222;-79
2022/11/26 07:14:28;;;;;;;68.57;12.60;;;;;;;;;;5027530;28;20267;-79
2022/11/26 07:16:56;;;;;;;71.65;14.27;;;;;;;;;;5027150;28;20709;-79
2022/11/26 07:19:23;;;;;;;77.10;17.65;;;;;;;;;;5026474;28;20264;-79
2022/11/26 07:21:51;;;;;;;82.13;19.13;;;;;;;;;;5027514;28;20213;-79
2022/11/26 07:24:19;;;;;;;81.40;21.60;;;;;;;;;;5025823;28;20232;-79
2022/11/26 07:26:46;;;;;;;78.35;20.08;;;;;;;;;;5025293;28;20578;-79
2022/11/26 07:29:13;;;;;;;80.07;20.75;;;;;;;;;;5024783;28;20590;-79
2022/11/26 07:31:40;;;;;;;80.60;20.33;;;;;;;;;;5024278;28;20238;-79
2022/11/26 07:34:07;;;;;;;74.32;16.90;;;;;;;;;;5024638;28;20446;-79
2022/11/26 07:36:35;;;;;;;74.60;13.10;;;;;;;;;;5023763;28;20210;-79
2022/11/26 07:39:04;;;;;;;69.72;13.73;;;;;;;;;;5023191;28;20244;-79
2022/11/26 07:41:31;;;;;;;72.63;13.50;;;;;;;;;;5023988;28;20244;-79
2022/11/26 07:43:58;;;;;;;73.30;14.43;;;;;;;;;;5023979;28;20213;-79
2022/11/26 07:46:26;;;;;;;72.30;13.90;;;;;;;;;;5023015;28;20273;-79
2022/11/26 07:48:53;;;;;;;74.75;14.32;;;;;;;;;;5022491;28;20265;-79
2022/11/26 07:51:22;;;;;;;72.57;13.90;;;;;;;;;;5022657;28;20274;-79
2022/11/26 07:53:49;;;;;;;71.90;14.10;;;;;;;;;;5022513;28;20293;-79
2022/11/26 07:56:18;;;;;;;74.15;15.43;;;;;;;;;;5022732;28;20303;-79
2022/11/26 07:58:45;;;;;;;73.97;15.00;;;;;;;;;;5022069;28;20241;-79
2022/11/26 08:01:14;;;;;;;73.47;14.10;;;;;;;;;;5022319;28;20458;-79
2022/11/26 08:03:41;;;;;;;76.03;16.83;;;;;;;;;;5023271;28;20245;-79
2022/11/26 08:06:09;;;;;;;78.90;16.93;;;;;;;;;;5021763;28;20478;-79
2022/11/26 08:08:37;;;;;;;77.95;15.00;;;;;;;;;;5021430;28;20493;-79
2022/11/26 08:11:04;;;;;;;70.07;13.70;;;;;;;;;;5021879;28;20501;-79
2022/11/26 08:13:33;;;;;;;75.60;16.17;;;;;;;;;;5022516;28;20504;-79
2022/11/26 08:16:00;;;;;;;75.10;15.30;;;;;;;;;;5021862;28;20538;-79
2022/11/26 08:18:27;;;;;;;79.43;15.63;;;;;;;;;;5021468;28;20910;-79
2022/11/26 08:20:55;;;;;;;72.72;13.57;;;;;;;;;;5021180;28;20477;-79
2022/11/26 08:23:22;;;;;;;71.10;13.50;;;;;;;;;;5021566;28;20210;-79
2022/11/26 08:25:50;;;;;;;72.70;14.57;;;;;;;;;;5021780;28;20485;-79
2022/11/26 08:28:17;;;;;;;79.77;16.27;;;;;;;;;;5021159;28;20493;-79
2022/11/26 08:30:46;;;;;;;90.97;16.30;;;;;;;;;;5021289;28;20456;-79
2022/11/26 08:33:14;;;;;;;75.00;15.07;;;;;;;;;;5020886;28;20497;-79
2022/11/26 08:35:41;;;;;;;71.77;16.10;;;;;;;;;;5021063;28;20546;-79
2022/11/26 08:38:08;;;;;;;71.67;14.27;;;;;;;;;;5021290;28;20454;-79
2022/11/26 08:40:35;;;;;;;73.27;14.97;;;;;;;;;;5020107;28;20514;-79
2022/11/26 08:43:02;;;;;;;75.70;16.23;;;;;;;;;;5021023;28;20506;-79
2022/11/26 08:45:30;;;;;;;78.00;14.93;;;;;;;;;;5020798;28;20461;-79
2022/11/26 08:47:58;;;;;;;72.50;16.20;;;;;;;;;;5021240;28;20508;-79
2022/11/26 08:50:25;;;;;;;73.10;15.20;;;;;;;;;;5024175;28;20469;-79
2022/11/26 08:52:52;;;;;;;75.70;14.50;;;;;;;;;;5024739;28;20486;-79
2022/11/26 08:55:19;;;;;;;74.97;13.23;;;;;;;;;;5024057;28;20800;-79
2022/11/26 08:57:47;;;;;;;71.00;13.13;;;;;;;;;;5024625;28;20971;-79
2022/11/26 09:00:15;;;;;;;72.60;13.50;;;;;;;;;;5022976;28;20521;-79
2022/11/26 09:02:42;;;;;;;70.27;13.63;;;;;;;;;;5024299;28;20817;-79
2022/11/26 09:05:10;;;;;;;75.23;14.40;;;;;;;;;;5023713;28;20481;-78
2022/11/26 09:07:38;;;;;;;72.87;14.43;;;;;;;;;;5023566;28;20541;-78
2022/11/26 09:10:05;;;;;;;70.27;13.30;;;;;;;;;;5022575;28;20562;-78
2022/11/26 09:12:32;;;;;;;75.63;14.23;;;;;;;;;;5023645;28;20477;-78
2022/11/26 09:15:00;;;;;;;72.23;12.83;;;;;;;;;;5020023;28;20510;-78
2022/11/26 09:17:27;;;;;;;72.37;14.53;;;;;;;;;;5023708;28;21006;-78
2022/11/26 09:19:55;;;;;;;70.30;13.17;;;;;;;;;;5021534;28;20525;-78
2022/11/26 09:22:24;;;;;;;74.27;14.70;;;;;;;;;;5021593;28;20458;-78
2022/11/26 09:24:51;;;;;;;71.67;14.13;;;;;;;;;;5022649;28;20466;-78
2022/11/26 09:27:19;;;;;;;76.50;20.50;;;;;;;;;;5022278;28;20469;-78
2022/11/26 09:29:46;;;;;;;74.90;16.70;;;;;;;;;;5022101;28;20507;-79
2022/11/26 09:32:13;;;;;;;71.67;14.47;;;;;;;;;;5021505;28;20480;-78
2022/11/26 09:34:40;;;;;;;74.47;16.07;;;;;;;;;;5020388;28;20481;-78
2022/11/26 09:37:07;;;;;;;75.27;17.97;;;;;;;;;;5019146;28;20508;-78
2022/11/26 09:39:36;;;;;;;73.10;16.37;;;;;;;;;;5017316;28;20573;-78
2022/11/26 09:42:06;;;;;;;69.37;14.30;;;;;;;;;;5017394;28;20948;-78
2022/11/26 09:44:39;;;;;;;81.03;14.20;;;;;;;;;;5015923;28;20975;-78
2022/11/26 09:47:10;;;;;;;74.87;12.60;;;;;;;;;;5015606;28;20545;-78
2022/11/26 09:49:40;;;;;;;69.30;13.73;;;;;;;;;;5014715;28;20474;-78
2022/11/26 09:52:08;;;;;;;73.17;13.97;;;;;;;;;;5016742;28;20851;-78
2022/11/26 09:54:38;;;;;;;69.90;12.00;;;;;;;;;;5015924;28;20542;-78
2022/11/26 09:57:10;;;;;;;69.30;10.33;;;;;;;;;;5015666;28;20449;-78
2022/11/26 09:59:38;;;;;;;66.07;9.03;;;;;;;;;;5015041;28;20576;-78
2022/11/26 10:02:10;;;;;;;70.63;10.70;;;;;;;;;;5015579;28;20890;-78
2022/11/26 10:04:39;;;;;;;67.80;8.93;;;;;;;;;;5014953;28;20485;-78
2022/11/26 10:07:09;;;;;;;65.20;7.40;;;;;;;;;;5014706;28;20454;-78
2022/11/26 10:09:51;;;;;;;67.37;7.13;;;;;;;;;;5013435;28;20505;-78
2022/11/26 10:12:25;;;;;;;69.60;7.30;;;;;;;;;;5011412;28;20464;-77
2022/11/26 10:14:57;;;;;;;69.60;7.00;;;;;;;;;;5014114;28;20450;-77
2022/11/26 10:17:30;;;;;;;69.17;6.83;;;;;;;;;;5014271;28;21010;-77
2022/11/26 10:20:06;;;;;;;66.10;7.63;;;;;;;;;;5013299;28;20489;-77
2022/11/26 10:22:35;;;;;;;64.30;8.00;;;;;;;;;;5014043;28;20449;-77
2022/11/26 10:25:03;;;;;;;66.37;9.10;;;;;;;;;;5013866;28;20549;-77
2022/11/26 10:27:34;;;;;;;67.17;9.20;;;;;;;;;;5013910;28;20489;-77
2022/11/26 10:30:03;;;;;;;71.07;9.43;;;;;;;;;;5012935;28;20500;-77
2022/11/26 10:32:33;;;;;;;68.10;10.20;;;;;;;;;;5013900;28;20466;-77
2022/11/26 10:35:00;;;;;;;67.87;9.90;;;;;;;;;;5013676;28;20450;-77
2022/11/26 10:37:29;;;;;;;66.23;9.20;;;;;;;;;;5013698;28;20516;-77
2022/11/26 10:39:58;;;;;;;72.43;9.67;;;;;;;;;;5012626;28;21097;-77
2022/11/26 10:42:25;;;;;;;70.30;9.97;;;;;;;;;;5013486;28;20537;-77
2022/11/26 10:44:53;;;;;;;70.27;9.97;;;;;;;;;;5013699;28;20514;-77
2022/11/26 10:47:22;;;;;;;76.10;11.70;;;;;;;;;;5013585;28;20886;-77
2022/11/26 10:49:50;;;;;;;71.77;10.43;;;;;;;;;;5012514;28;20906;-77
2022/11/26 10:52:19;;;;;;;78.63;15.80;;;;;;;;;;5013347;28;20879;-77
2022/11/26 10:54:46;;;;;;;72.53;14.70;;;;;;;;;;5013185;28;20481;-77
2022/11/26 10:57:14;;;;;;;70.93;11.37;;;;;;;;;;5013455;28;20492;-77
2022/11/26 10:59:46;;;;;;;70.17;9.77;;;;;;;;;;5012414;28;20582;-77
2022/11/26 11:02:27;;;;;;;68.27;9.07;;;;;;;;;;5013374;28;20541;-77
2022/11/26 11:04:55;;;;;;;66.63;9.13;;;;;;;;;;5013121;28;20967;-77
2022/11/26 11:07:35;;;;;;;70.90;8.93;;;;;;;;;;5012974;28;20454;-77
2022/11/26 11:10:04;;;;;;;80.03;10.43;;;;;;;;;;5012141;28;20556;-77
2022/11/26 11:12:31;;;;;;;66.07;8.87;;;;;;;;;;5013135;28;20486;-77
2022/11/26 11:15:13;;;;;;;69.47;9.67;;;;;;;;;;5012988;28;20490;-77
2022/11/26 11:17:41;;;;;;;71.80;7.80;;;;;;;;;;5012869;28;21023;-77
2022/11/26 11:20:27;;;;;;;74.80;8.27;;;;;;;;;;5012261;28;20577;-77
2022/11/26 11:22:59;;;;;;;63.97;6.10;;;;;;;;;;5012998;28;20488;-77
2022/11/26 11:25:26;;;;;;;67.97;7.40;;;;;;;;;;5012872;28;20456;-77
2022/11/26 11:27:54;;;;;;;65.37;8.17;;;;;;;;;;5012751;28;20452;-77
2022/11/26 11:30:25;;;;;;;68.37;8.17;;;;;;;;;;5012346;28;21066;-78
2022/11/26 11:32:56;;;;;;;65.60;7.03;;;;;;;;;;5012798;28;20831;-77
2022/11/26 11:35:24;;;;;;;68.57;8.00;;;;;;;;;;5012602;28;20839;-78
2022/11/26 11:37:52;;;;;;;68.17;7.70;;;;;;;;;;5012689;28;20540;-76
2022/11/26 11:40:24;;;;;;;65.83;5.83;;;;;;;;;;5011617;28;20485;-76
2022/11/26 11:42:52;;;;;;;67.57;6.50;;;;;;;;;;5012701;28;20465;-76
2022/11/26 11:45:22;;;;;;;67.90;6.13;;;;;;;;;;5012648;28;21033;-76
2022/11/26 11:47:51;;;;;;;70.37;7.07;;;;;;;;;;5012476;28;20446;-76
2022/11/26 11:50:23;;;;;;;72.20;7.63;;;;;;;;;;5011428;28;20485;-76
2022/11/26 11:52:57;;;;;;;65.33;6.90;;;;;;;;;;5012303;28;20465;-76
2022/11/26 11:55:29;;;;;;;64.90;6.83;;;;;;;;;;5012456;28;20450;-76
2022/11/26 11:58:04;;;;;;;66.03;8.53;;;;;;;;;;5012397;28;20473;-76
2022/11/26 12:00:37;;;;;;;71.90;8.20;;;;;;;;;;5011452;28;21002;-76
2022/11/26 12:03:22;;;;;;;68.40;7.60;;;;;;;;;;5012407;28;20539;-76
2022/11/26 12:05:56;;;;;;;62.57;6.20;;;;;;;;;;5012070;28;20529;-76
2022/11/26 12:08:33;;;;;;;63.77;8.60;;;;;;;;;;5012045;28;20572;-76
2022/11/26 12:11:09;;;;;;;69.30;8.10;;;;;;;;;;5012780;28;20492;-77
2022/11/26 12:13:42;;;;;;;64.57;6.47;;;;;;;;;;5012155;28;20906;-77
2022/11/26 12:16:11;;;;;;;67.20;7.60;;;;;;;;;;5012016;28;20826;-77
2022/11/26 12:18:41;;;;;;;64.90;5.90;;;;;;;;;;5011461;28;20508;-77
2022/11/26 12:21:12;;;;;;;68.20;6.60;;;;;;;;;;5012106;28;20913;-77
2022/11/26 12:23:41;;;;;;;63.07;5.37;;;;;;;;;;5014511;28;20434;-77
2022/11/26 12:26:19;;;;;;;65.07;5.97;;;;;;;;;;5016074;28;20485;-77
2022/11/26 12:28:51;;;;;;;78.40;15.97;;;;;;;;;;5015394;28;20520;-76
2022/11/26 12:31:20;;;;;;;74.00;9.17;;;;;;;;;;5016147;28;20525;-76
2022/11/26 12:33:49;;;;;;;75.30;18.70;;;;;;;;;;5016085;28;20489;-76
2022/11/26 12:36:21;;;;;;;63.83;6.17;;;;;;;;;;5015924;28;20457;-76
2022/11/26 12:38:52;;;;;;;61.67;5.53;;;;;;;;;;5015055;28;20512;-76
2022/11/26 12:41:20;;;;;;;64.90;5.53;;;;;;;;;;5016011;28;20486;-76
2022/11/26 12:43:51;;;;;;;64.20;5.33;;;;;;;;;;5015819;28;20462;-76
2022/11/26 12:46:19;;;;;;;76.07;12.40;;;;;;;;;;5015935;28;20548;-76
2022/11/26 12:48:51;;;;;;;64.07;7.20;;;;;;;;;;5014869;28;20573;-76
2022/11/26 12:51:29;;;;;;;65.47;6.50;;;;;;;;;;5015584;28;20533;-76
2022/11/26 12:54:02;;;;;;;65.63;6.17;;;;;;;;;;5015732;28;20458;-77
2022/11/26 12:56:32;;;;;;;65.57;6.03;;;;;;;;;;5015775;28;20453;-77
2022/11/26 12:59:01;;;;;;;67.13;5.77;;;;;;;;;;5014651;28;21024;-77
2022/11/26 13:01:29;;;;;;;63.60;5.50;;;;;;;;;;5015458;28;20550;-77
2022/11/26 13:03:56;;;;;;;66.63;6.27;;;;;;;;;;5015195;28;20529;-77
2022/11/26 13:06:30;;;;;;;65.27;5.40;;;;;;;;;;5015380;28;20540;-77
2022/11/26 13:09:01;;;;;;;63.57;5.20;;;;;;;;;;5014393;28;20564;-77
2022/11/26 13:11:34;;;;;;;64.00;5.40;;;;;;;;;;5015366;28;20477;-77
2022/11/26 13:14:05;;;;;;;64.23;6.20;;;;;;;;;;5015459;28;20485;-77
2022/11/26 13:16:36;;;;;;;61.43;5.17;;;;;;;;;;5015014;28;20947;-77
2022/11/26 13:19:06;;;;;;;65.37;5.53;;;;;;;;;;5014525;28;20846;-77
2022/11/26 13:21:47;;;;;;;64.10;7.00;;;;;;;;;;5015245;28;20576;-77
2022/11/26 13:24:29;;;;;;;63.73;6.03;;;;;;;;;;5015182;28;20456;-77
2022/11/26 13:27:11;;;;;;;65.03;5.53;;;;;;;;;;5012272;28;20568;-77
2022/11/26 13:29:49;;;;;;;62.10;5.17;;;;;;;;;;5014268;28;20556;-78
2022/11/26 13:32:26;;;;;;;63.03;4.93;;;;;;;;;;5015024;28;20532;-77
2022/11/26 13:35:01;;;;;;;66.07;6.17;;;;;;;;;;5014360;28;20441;-77
2022/11/26 13:37:43;;;;;;;69.40;9.03;;;;;;;;;;5014685;28;20456;-77
2022/11/26 13:40:25;;;;;;;65.50;7.03;;;;;;;;;;4997840;28;20493;-77
2022/11/26 13:42:59;;;;;;;62.57;5.43;;;;;;;;;;5014732;28;20533;-77
2022/11/26 13:45:39;;;;;;;60.63;5.43;;;;;;;;;;5014689;28;20485;-77
2022/11/26 13:48:08;;;;;;;61.57;5.60;;;;;;;;;;5014533;28;20474;-77
2022/11/26 13:50:39;;;;;;;63.23;5.20;;;;;;;;;;5014065;28;20545;-77
2022/11/26 13:53:06;;;;;;;73.93;7.13;;;;;;;;;;5014610;28;20486;-77
2022/11/26 13:55:36;;;;;;;61.40;5.20;;;;;;;;;;5014572;28;20489;-77
2022/11/26 13:58:07;;;;;;;64.70;9.40;;;;;;;;;;5014106;28;20824;-77
2022/11/26 14:00:35;;;;;;;63.30;6.07;;;;;;;;;;5013968;28;20486;-77
2022/11/26 14:03:03;;;;;;;63.00;5.90;;;;;;;;;;5014503;28;20818;-77
2022/11/26 14:05:45;;;;;;;64.73;6.07;;;;;;;;;;5014187;28;20923;-77
2022/11/26 14:08:30;;;;;;;63.10;6.40;;;;;;;;;;5013983;28;20906;-77
2022/11/26 14:10:58;;;;;;;63.80;5.57;;;;;;;;;;5013841;28;20488;-76
2022/11/26 14:13:26;;;;;;;63.20;5.30;;;;;;;;;;5014391;28;20449;-77
2022/11/26 14:15:55;;;;;;;64.70;7.80;;;;;;;;;;5014416;28;20453;-76
2022/11/26 14:18:41;;;;;;;66.90;5.47;;;;;;;;;;5014115;28;20473;-76
2022/11/26 14:21:14;;;;;;;63.00;5.77;;;;;;;;;;5013882;28;20892;-76
2022/11/26 14:23:46;;;;;;;65.20;7.63;;;;;;;;;;5013921;28;20538;-76
2022/11/26 14:26:17;;;;;;;62.00;5.90;;;;;;;;;;5013850;28;20454;-76
2022/11/26 14:28:44;;;;;;;71.03;6.83;;;;;;;;;;5013180;28;20568;-76
2022/11/26 14:31:14;;;;;;;62.97;5.70;;;;;;;;;;5013980;28;20446;-76
2022/11/26 14:33:45;;;;;;;65.40;6.00;;;;;;;;;;5013812;28;20485;-76